sensor_id;sensor_type;location;lat;lon;timestamp;temperature;humidity
52267;DHT22;38223;50.940;4.034;2023-02-01T00:04:12;8.60;99.90
52267;DHT22;38223;50.940;4.034;2023-02-01T00:06:47;8.60;99.90
52267;DHT22;38223;50.940;4.034;2023-02-01T00:09:19;8.70;99.90
52267;DHT22;38223;50.940;4.034;2023-02-01T00:11:52;8.70;99.90
52267;DHT22;38223;50.940;4.034;2023-02-01T00:14:21;8.60;99.90
52267;DHT22;38223;50.940;4.034;2023-02-01T00:17:00;8.60;99.90
52267;DHT22;38223;50.940;4.034;2023-02-01T00:19:32;8.50;99.90
52267;DHT22;38223;50.940;4.034;2023-02-01T00:22:05;8.50;99.90
52267;DHT22;38223;50.940;4.034;2023-02-01T00:24:36;8.50;99.90
52267;DHT22;38223;50.940;4.034;2023-02-01T00:27:10;8.40;99.90
52267;DHT22;38223;50.940;4.034;2023-02-01T00:29:43;8.50;99.90
52267;DHT22;38223;50.940;4.034;2023-02-01T00:32:17;8.50;99.90
52267;DHT22;38223;50.940;4.034;2023-02-01T00:34:48;8.40;99.90
52267;DHT22;38223;50.940;4.034;2023-02-01T00:37:22;8.40;99.90
52267;DHT22;38223;50.940;4.034;2023-02-01T00:39:52;8.40;99.90
52267;DHT22;38223;50.940;4.034;2023-02-01T00:42:25;8.40;99.90
52267;DHT22;38223;50.940;4.034;2023-02-01T00:44:57;8.40;99.90
52267;DHT22;38223;50.940;4.034;2023-02-01T00:47:26;8.30;99.90
52267;DHT22;38223;50.940;4.034;2023-02-01T00:50:00;8.20;99.90
52267;DHT22;38223;50.940;4.034;2023-02-01T00:52:31;8.10;99.90
52267;DHT22;38223;50.940;4.034;2023-02-01T00:55:15;8.10;99.90
52267;DHT22;38223;50.940;4.034;2023-02-01T00:57:47;8.10;99.90
52267;DHT22;38223;50.940;4.034;2023-02-01T01:00:22;8.10;99.90
52267;DHT22;38223;50.940;4.034;2023-02-01T01:02:52;8.00;99.90
52267;DHT22;38223;50.940;4.034;2023-02-01T01:05:25;8.00;99.90
52267;DHT22;38223;50.940;4.034;2023-02-01T01:07:58;8.00;99.90
52267;DHT22;38223;50.940;4.034;2023-02-01T01:10:32;8.00;99.90
52267;DHT22;38223;50.940;4.034;2023-02-01T01:13:04;8.00;99.90
52267;DHT22;38223;50.940;4.034;2023-02-01T01:15:38;8.00;99.90
52267;DHT22;38223;50.940;4.034;2023-02-01T01:18:15;8.00;99.90
52267;DHT22;38223;50.940;4.034;2023-02-01T01:20:45;8.10;99.90
52267;DHT22;38223;50.940;4.034;2023-02-01T01:23:17;8.00;99.90
52267;DHT22;38223;50.940;4.034;2023-02-01T01:25:49;8.00;99.90
52267;DHT22;38223;50.940;4.034;2023-02-01T01:28:24;8.10;99.90
52267;DHT22;38223;50.940;4.034;2023-02-01T01:30:56;8.10;99.90
52267;DHT22;38223;50.940;4.034;2023-02-01T01:33:27;8.10;99.90
52267;DHT22;38223;50.940;4.034;2023-02-01T01:36:04;8.00;99.90
52267;DHT22;38223;50.940;4.034;2023-02-01T01:38:34;8.10;99.90
52267;DHT22;38223;50.940;4.034;2023-02-01T01:41:08;8.00;99.90
52267;DHT22;38223;50.940;4.034;2023-02-01T01:43:57;8.00;99.90
52267;DHT22;38223;50.940;4.034;2023-02-01T01:46:31;7.90;99.90
52267;DHT22;38223;50.940;4.034;2023-02-01T01:49:11;7.80;99.90
52267;DHT22;38223;50.940;4.034;2023-02-01T01:51:49;7.80;99.90
52267;DHT22;38223;50.940;4.034;2023-02-01T01:54:25;7.90;99.90
52267;DHT22;38223;50.940;4.034;2023-02-01T01:57:00;7.80;99.90
52267;DHT22;38223;50.940;4.034;2023-02-01T01:59:33;7.70;99.90
52267;DHT22;38223;50.940;4.034;2023-02-01T02:04:58;7.60;99.90
52267;DHT22;38223;50.940;4.034;2023-02-01T02:07:34;7.70;99.90
52267;DHT22;38223;50.940;4.034;2023-02-01T02:10:11;7.70;99.90
52267;DHT22;38223;50.940;4.034;2023-02-01T02:12:47;7.70;99.90
52267;DHT22;38223;50.940;4.034;2023-02-01T02:15:19;7.70;99.90
52267;DHT22;38223;50.940;4.034;2023-02-01T02:18:08;7.70;99.90
52267;DHT22;38223;50.940;4.034;2023-02-01T02:21:02;7.60;99.90
52267;DHT22;38223;50.940;4.034;2023-02-01T02:27:17;7.60;99.90
52267;DHT22;38223;50.940;4.034;2023-02-01T02:32:33;7.50;99.90
52267;DHT22;38223;50.940;4.034;2023-02-01T02:40:58;7.40;99.90
52267;DHT22;38223;50.940;4.034;2023-02-01T02:43:42;7.40;99.90
52267;DHT22;38223;50.940;4.034;2023-02-01T02:46:35;7.40;99.90
52267;DHT22;38223;50.940;4.034;2023-02-01T02:49:36;7.30;99.90
52267;DHT22;38223;50.940;4.034;2023-02-01T02:52:17;7.40;99.90
52267;DHT22;38223;50.940;4.034;2023-02-01T02:57:59;7.30;99.90
52267;DHT22;38223;50.940;4.034;2023-02-01T03:00:49;7.30;99.90
52267;DHT22;38223;50.940;4.034;2023-02-01T03:03:42;7.30;99.90
52267;DHT22;38223;50.940;4.034;2023-02-01T03:06:28;7.30;99.90
52267;DHT22;38223;50.940;4.034;2023-02-01T03:09:01;7.30;99.90
52267;DHT22;38223;50.940;4.034;2023-02-01T03:11:36;7.30;99.90
52267;DHT22;38223;50.940;4.034;2023-02-01T03:14:23;7.30;99.90
52267;DHT22;38223;50.940;4.034;2023-02-01T03:17:03;7.40;99.90
52267;DHT22;38223;50.940;4.034;2023-02-01T03:19:37;7.40;99.90
52267;DHT22;38223;50.940;4.034;2023-02-01T03:22:08;7.40;99.90
52267;DHT22;38223;50.940;4.034;2023-02-01T03:24:44;7.30;99.90
52267;DHT22;38223;50.940;4.034;2023-02-01T03:27:24;7.30;99.90
52267;DHT22;38223;50.940;4.034;2023-02-01T03:30:15;7.30;99.90
52267;DHT22;38223;50.940;4.034;2023-02-01T03:32:46;7.20;99.90
52267;DHT22;38223;50.940;4.034;2023-02-01T03:38:21;7.20;99.90
52267;DHT22;38223;50.940;4.034;2023-02-01T03:40:52;7.20;99.90
52267;DHT22;38223;50.940;4.034;2023-02-01T03:43:26;7.30;99.90
52267;DHT22;38223;50.940;4.034;2023-02-01T03:46:02;7.30;99.90
52267;DHT22;38223;50.940;4.034;2023-02-01T03:48:35;7.20;99.90
52267;DHT22;38223;50.940;4.034;2023-02-01T03:51:08;7.10;99.90
52267;DHT22;38223;50.940;4.034;2023-02-01T03:53:44;7.10;99.90
52267;DHT22;38223;50.940;4.034;2023-02-01T03:56:17;7.10;99.90
52267;DHT22;38223;50.940;4.034;2023-02-01T03:58:53;7.10;99.90
52267;DHT22;38223;50.940;4.034;2023-02-01T04:01:41;7.10;99.90
52267;DHT22;38223;50.940;4.034;2023-02-01T04:04:20;7.00;99.90
52267;DHT22;38223;50.940;4.034;2023-02-01T04:06:53;6.90;99.90
52267;DHT22;38223;50.940;4.034;2023-02-01T04:09:28;6.90;99.90
52267;DHT22;38223;50.940;4.034;2023-02-01T04:11:59;6.90;99.90
52267;DHT22;38223;50.940;4.034;2023-02-01T04:14:30;7.00;99.90
52267;DHT22;38223;50.940;4.034;2023-02-01T04:16:58;6.90;99.90
52267;DHT22;38223;50.940;4.034;2023-02-01T04:19:30;6.90;99.90
52267;DHT22;38223;50.940;4.034;2023-02-01T04:21:57;7.00;99.90
52267;DHT22;38223;50.940;4.034;2023-02-01T04:24:36;7.00;99.90
52267;DHT22;38223;50.940;4.034;2023-02-01T04:27:04;7.00;99.90
52267;DHT22;38223;50.940;4.034;2023-02-01T04:29:36;6.90;99.90
52267;DHT22;38223;50.940;4.034;2023-02-01T04:32:10;6.90;99.90
52267;DHT22;38223;50.940;4.034;2023-02-01T04:34:41;6.80;99.90
52267;DHT22;38223;50.940;4.034;2023-02-01T04:37:11;6.80;99.90
52267;DHT22;38223;50.940;4.034;2023-02-01T04:39:48;6.80;99.90
52267;DHT22;38223;50.940;4.034;2023-02-01T04:42:23;6.80;99.90
52267;DHT22;38223;50.940;4.034;2023-02-01T04:44:52;6.80;99.90
52267;DHT22;38223;50.940;4.034;2023-02-01T04:47:22;6.70;99.90
52267;DHT22;38223;50.940;4.034;2023-02-01T04:49:58;6.70;99.90
52267;DHT22;38223;50.940;4.034;2023-02-01T04:52:26;6.80;99.90
52267;DHT22;38223;50.940;4.034;2023-02-01T04:55:01;6.80;99.90
52267;DHT22;38223;50.940;4.034;2023-02-01T04:57:34;6.80;99.90
52267;DHT22;38223;50.940;4.034;2023-02-01T05:02:57;6.70;99.90
52267;DHT22;38223;50.940;4.034;2023-02-01T05:05:32;6.70;99.90
52267;DHT22;38223;50.940;4.034;2023-02-01T05:08:05;6.70;99.90
52267;DHT22;38223;50.940;4.034;2023-02-01T05:10:37;6.70;99.90
52267;DHT22;38223;50.940;4.034;2023-02-01T05:13:14;6.70;99.90
52267;DHT22;38223;50.940;4.034;2023-02-01T05:16:01;6.70;99.90
52267;DHT22;38223;50.940;4.034;2023-02-01T05:18:33;6.80;99.90
52267;DHT22;38223;50.940;4.034;2023-02-01T05:21:05;6.80;99.90
52267;DHT22;38223;50.940;4.034;2023-02-01T05:23:39;6.80;99.90
52267;DHT22;38223;50.940;4.034;2023-02-01T05:26:26;6.80;99.90
52267;DHT22;38223;50.940;4.034;2023-02-01T05:28:57;6.70;99.90
52267;DHT22;38223;50.940;4.034;2023-02-01T05:31:28;6.70;99.90
52267;DHT22;38223;50.940;4.034;2023-02-01T05:34:00;6.70;99.90
52267;DHT22;38223;50.940;4.034;2023-02-01T05:36:32;6.70;99.90
52267;DHT22;38223;50.940;4.034;2023-02-01T05:39:07;6.60;99.90
52267;DHT22;38223;50.940;4.034;2023-02-01T05:41:39;6.60;99.90
52267;DHT22;38223;50.940;4.034;2023-02-01T05:44:11;6.50;99.90
52267;DHT22;38223;50.940;4.034;2023-02-01T05:46:46;6.40;99.90
52267;DHT22;38223;50.940;4.034;2023-02-01T05:49:15;6.40;99.90
52267;DHT22;38223;50.940;4.034;2023-02-01T05:54:36;6.50;99.90
52267;DHT22;38223;50.940;4.034;2023-02-01T05:57:07;6.40;99.90
52267;DHT22;38223;50.940;4.034;2023-02-01T05:59:42;6.50;99.90
52267;DHT22;38223;50.940;4.034;2023-02-01T06:02:15;6.50;99.90
52267;DHT22;38223;50.940;4.034;2023-02-01T06:04:46;6.40;99.90
52267;DHT22;38223;50.940;4.034;2023-02-01T06:07:18;6.40;99.90
52267;DHT22;38223;50.940;4.034;2023-02-01T06:09:48;6.30;99.90
52267;DHT22;38223;50.940;4.034;2023-02-01T06:12:20;6.30;99.90
52267;DHT22;38223;50.940;4.034;2023-02-01T06:14:52;6.30;99.90
52267;DHT22;38223;50.940;4.034;2023-02-01T06:17:26;6.20;99.90
52267;DHT22;38223;50.940;4.034;2023-02-01T06:19:57;6.20;99.90
52267;DHT22;38223;50.940;4.034;2023-02-01T06:22:28;6.30;99.90
52267;DHT22;38223;50.940;4.034;2023-02-01T06:25:00;6.20;99.90
52267;DHT22;38223;50.940;4.034;2023-02-01T06:27:33;6.20;99.90
52267;DHT22;38223;50.940;4.034;2023-02-01T06:30:09;6.30;99.90
52267;DHT22;38223;50.940;4.034;2023-02-01T06:32:42;6.30;99.90
52267;DHT22;38223;50.940;4.034;2023-02-01T06:35:13;6.30;99.90
52267;DHT22;38223;50.940;4.034;2023-02-01T06:37:47;6.40;99.90
52267;DHT22;38223;50.940;4.034;2023-02-01T06:40:19;6.40;99.90
52267;DHT22;38223;50.940;4.034;2023-02-01T06:42:54;6.40;99.90
52267;DHT22;38223;50.940;4.034;2023-02-01T06:45:23;6.30;99.90
52267;DHT22;38223;50.940;4.034;2023-02-01T06:47:55;6.40;99.90
52267;DHT22;38223;50.940;4.034;2023-02-01T06:50:29;6.40;99.90
52267;DHT22;38223;50.940;4.034;2023-02-01T06:53:06;6.30;99.90
52267;DHT22;38223;50.940;4.034;2023-02-01T06:55:39;6.30;99.90
52267;DHT22;38223;50.940;4.034;2023-02-01T06:58:10;6.40;99.90
52267;DHT22;38223;50.940;4.034;2023-02-01T07:00:41;6.40;99.90
52267;DHT22;38223;50.940;4.034;2023-02-01T07:03:29;6.40;99.90
52267;DHT22;38223;50.940;4.034;2023-02-01T07:06:00;6.40;99.90
52267;DHT22;38223;50.940;4.034;2023-02-01T07:08:33;6.40;99.90
52267;DHT22;38223;50.940;4.034;2023-02-01T07:11:10;6.40;99.90
52267;DHT22;38223;50.940;4.034;2023-02-01T07:13:43;6.30;99.90
52267;DHT22;38223;50.940;4.034;2023-02-01T07:16:18;6.20;99.90
52267;DHT22;38223;50.940;4.034;2023-02-01T07:18:52;6.10;99.90
52267;DHT22;38223;50.940;4.034;2023-02-01T07:21:24;6.20;99.90
52267;DHT22;38223;50.940;4.034;2023-02-01T07:24:00;6.20;99.90
52267;DHT22;38223;50.940;4.034;2023-02-01T07:26:33;6.20;99.90
52267;DHT22;38223;50.940;4.034;2023-02-01T07:29:03;6.30;99.90
52267;DHT22;38223;50.940;4.034;2023-02-01T07:31:35;6.50;99.90
52267;DHT22;38223;50.940;4.034;2023-02-01T07:34:09;6.50;99.90
52267;DHT22;38223;50.940;4.034;2023-02-01T07:36:40;6.50;99.90
52267;DHT22;38223;50.940;4.034;2023-02-01T07:39:11;6.40;99.90
52267;DHT22;38223;50.940;4.034;2023-02-01T07:41:43;6.50;99.90
52267;DHT22;38223;50.940;4.034;2023-02-01T07:44:13;6.60;99.90
52267;DHT22;38223;50.940;4.034;2023-02-01T07:46:46;6.60;99.90
52267;DHT22;38223;50.940;4.034;2023-02-01T07:49:18;6.70;99.90
52267;DHT22;38223;50.940;4.034;2023-02-01T07:51:50;6.80;99.90
52267;DHT22;38223;50.940;4.034;2023-02-01T07:54:25;6.90;99.90
52267;DHT22;38223;50.940;4.034;2023-02-01T07:56:54;6.90;99.90
52267;DHT22;38223;50.940;4.034;2023-02-01T07:59:24;6.80;99.90
52267;DHT22;38223;50.940;4.034;2023-02-01T08:01:53;6.70;99.90
52267;DHT22;38223;50.940;4.034;2023-02-01T08:04:26;6.70;99.90
52267;DHT22;38223;50.940;4.034;2023-02-01T08:06:55;6.60;99.90
52267;DHT22;38223;50.940;4.034;2023-02-01T08:09:26;6.60;99.90
52267;DHT22;38223;50.940;4.034;2023-02-01T08:11:57;6.50;99.90
52267;DHT22;38223;50.940;4.034;2023-02-01T08:14:29;6.50;99.90
52267;DHT22;38223;50.940;4.034;2023-02-01T08:17:01;6.50;99.90
52267;DHT22;38223;50.940;4.034;2023-02-01T08:19:33;6.50;99.90
52267;DHT22;38223;50.940;4.034;2023-02-01T08:22:09;6.40;99.90
52267;DHT22;38223;50.940;4.034;2023-02-01T08:24:39;6.50;99.90
52267;DHT22;38223;50.940;4.034;2023-02-01T08:27:14;6.50;99.90
52267;DHT22;38223;50.940;4.034;2023-02-01T08:29:45;6.50;99.90
52267;DHT22;38223;50.940;4.034;2023-02-01T08:32:19;6.50;99.90
52267;DHT22;38223;50.940;4.034;2023-02-01T08:34:53;6.50;99.90
52267;DHT22;38223;50.940;4.034;2023-02-01T08:37:22;6.50;99.90
52267;DHT22;38223;50.940;4.034;2023-02-01T08:39:54;6.50;99.90
52267;DHT22;38223;50.940;4.034;2023-02-01T08:42:30;6.60;99.90
52267;DHT22;38223;50.940;4.034;2023-02-01T08:45:18;6.60;99.90
52267;DHT22;38223;50.940;4.034;2023-02-01T08:47:54;6.70;99.90
52267;DHT22;38223;50.940;4.034;2023-02-01T08:50:25;6.70;99.90
52267;DHT22;38223;50.940;4.034;2023-02-01T08:52:59;6.70;99.90
52267;DHT22;38223;50.940;4.034;2023-02-01T08:55:30;6.80;99.90
52267;DHT22;38223;50.940;4.034;2023-02-01T08:58:05;6.90;99.90
52267;DHT22;38223;50.940;4.034;2023-02-01T09:00:33;6.90;99.90
52267;DHT22;38223;50.940;4.034;2023-02-01T09:03:07;6.90;99.90
52267;DHT22;38223;50.940;4.034;2023-02-01T09:05:41;7.00;99.90
52267;DHT22;38223;50.940;4.034;2023-02-01T09:08:11;7.00;99.90
52267;DHT22;38223;50.940;4.034;2023-02-01T09:10:47;7.10;99.90
52267;DHT22;38223;50.940;4.034;2023-02-01T09:13:16;7.20;99.90
52267;DHT22;38223;50.940;4.034;2023-02-01T09:15:45;7.20;99.90
52267;DHT22;38223;50.940;4.034;2023-02-01T09:18:22;7.20;99.90
52267;DHT22;38223;50.940;4.034;2023-02-01T09:20:58;7.20;99.90
52267;DHT22;38223;50.940;4.034;2023-02-01T09:23:27;7.30;99.90
52267;DHT22;38223;50.940;4.034;2023-02-01T09:26:07;7.30;99.90
52267;DHT22;38223;50.940;4.034;2023-02-01T09:28:36;7.20;99.90
52267;DHT22;38223;50.940;4.034;2023-02-01T09:31:08;7.20;99.90
52267;DHT22;38223;50.940;4.034;2023-02-01T09:33:40;7.20;99.90
52267;DHT22;38223;50.940;4.034;2023-02-01T09:36:10;7.30;99.90
52267;DHT22;38223;50.940;4.034;2023-02-01T09:38:41;7.40;99.90
52267;DHT22;38223;50.940;4.034;2023-02-01T09:41:30;7.60;99.90
52267;DHT22;38223;50.940;4.034;2023-02-01T09:44:07;7.60;99.90
52267;DHT22;38223;50.940;4.034;2023-02-01T09:46:35;7.60;99.90
52267;DHT22;38223;50.940;4.034;2023-02-01T09:49:12;7.60;99.90
52267;DHT22;38223;50.940;4.034;2023-02-01T09:51:47;7.70;99.90
52267;DHT22;38223;50.940;4.034;2023-02-01T09:54:22;7.80;99.90
52267;DHT22;38223;50.940;4.034;2023-02-01T09:57:07;7.80;99.90
52267;DHT22;38223;50.940;4.034;2023-02-01T09:59:42;7.80;99.90
52267;DHT22;38223;50.940;4.034;2023-02-01T10:02:22;7.90;99.90
52267;DHT22;38223;50.940;4.034;2023-02-01T10:05:00;8.00;99.90
52267;DHT22;38223;50.940;4.034;2023-02-01T10:07:38;8.00;99.90
52267;DHT22;38223;50.940;4.034;2023-02-01T10:10:12;8.10;99.90
52267;DHT22;38223;50.940;4.034;2023-02-01T10:13:35;8.20;99.90
52267;DHT22;38223;50.940;4.034;2023-02-01T10:24:23;8.40;99.90
52267;DHT22;38223;50.940;4.034;2023-02-01T10:27:08;8.40;99.90
52267;DHT22;38223;50.940;4.034;2023-02-01T10:29:39;8.30;99.90
52267;DHT22;38223;50.940;4.034;2023-02-01T10:32:24;8.40;99.90
52267;DHT22;38223;50.940;4.034;2023-02-01T10:34:57;8.40;99.90
52267;DHT22;38223;50.940;4.034;2023-02-01T10:37:32;8.40;99.90
52267;DHT22;38223;50.940;4.034;2023-02-01T10:40:27;8.40;99.90
52267;DHT22;38223;50.940;4.034;2023-02-01T10:42:59;8.50;99.90
52267;DHT22;38223;50.940;4.034;2023-02-01T10:45:30;8.70;99.90
52267;DHT22;38223;50.940;4.034;2023-02-01T10:48:05;8.70;99.90
52267;DHT22;38223;50.940;4.034;2023-02-01T10:50:48;8.80;99.90
52267;DHT22;38223;50.940;4.034;2023-02-01T10:53:42;8.90;99.90
52267;DHT22;38223;50.940;4.034;2023-02-01T10:56:18;9.00;99.90
52267;DHT22;38223;50.940;4.034;2023-02-01T10:58:49;9.10;99.90
52267;DHT22;38223;50.940;4.034;2023-02-01T11:01:32;9.30;99.90
52267;DHT22;38223;50.940;4.034;2023-02-01T11:04:09;9.40;99.90
52267;DHT22;38223;50.940;4.034;2023-02-01T11:06:45;9.50;99.90
52267;DHT22;38223;50.940;4.034;2023-02-01T11:09:21;9.60;99.90
52267;DHT22;38223;50.940;4.034;2023-02-01T11:11:58;9.50;99.90
52267;DHT22;38223;50.940;4.034;2023-02-01T11:14:41;9.70;99.90
52267;DHT22;38223;50.940;4.034;2023-02-01T11:17:25;9.70;99.90
52267;DHT22;38223;50.940;4.034;2023-02-01T11:20:00;9.60;99.90
52267;DHT22;38223;50.940;4.034;2023-02-01T11:22:35;9.40;99.90
52267;DHT22;38223;50.940;4.034;2023-02-01T11:25:08;9.40;99.90
52267;DHT22;38223;50.940;4.034;2023-02-01T11:27:39;9.40;99.90
52267;DHT22;38223;50.940;4.034;2023-02-01T11:30:34;9.30;99.90
52267;DHT22;38223;50.940;4.034;2023-02-01T11:33:05;9.30;99.90
52267;DHT22;38223;50.940;4.034;2023-02-01T11:35:41;9.30;99.90
52267;DHT22;38223;50.940;4.034;2023-02-01T11:38:24;9.30;99.90
52267;DHT22;38223;50.940;4.034;2023-02-01T11:40:52;9.20;99.90
52267;DHT22;38223;50.940;4.034;2023-02-01T11:43:29;9.20;99.90
52267;DHT22;38223;50.940;4.034;2023-02-01T11:46:08;9.20;99.90
52267;DHT22;38223;50.940;4.034;2023-02-01T11:48:35;9.30;99.90
52267;DHT22;38223;50.940;4.034;2023-02-01T12:00:02;9.80;99.90
52267;DHT22;38223;50.940;4.034;2023-02-01T12:05:41;9.90;99.90
52267;DHT22;38223;50.940;4.034;2023-02-01T12:08:19;9.90;99.90
52267;DHT22;38223;50.940;4.034;2023-02-01T12:25:25;10.00;99.90
52267;DHT22;38223;50.940;4.034;2023-02-01T12:36:22;10.30;99.90
52267;DHT22;38223;50.940;4.034;2023-02-01T12:39:13;10.30;99.90
52267;DHT22;38223;50.940;4.034;2023-02-01T12:42:00;10.20;99.90
52267;DHT22;38223;50.940;4.034;2023-02-01T12:44:52;10.10;99.90
52267;DHT22;38223;50.940;4.034;2023-02-01T12:47:34;10.20;99.90
52267;DHT22;38223;50.940;4.034;2023-02-01T12:50:24;10.30;99.90
52267;DHT22;38223;50.940;4.034;2023-02-01T12:52:58;10.40;99.90
52267;DHT22;38223;50.940;4.034;2023-02-01T12:55:36;10.50;99.90
52267;DHT22;38223;50.940;4.034;2023-02-01T12:58:38;10.70;99.90
52267;DHT22;38223;50.940;4.034;2023-02-01T13:01:11;10.70;99.90
52267;DHT22;38223;50.940;4.034;2023-02-01T13:04:04;10.80;99.90
52267;DHT22;38223;50.940;4.034;2023-02-01T13:06:38;10.70;99.90
52267;DHT22;38223;50.940;4.034;2023-02-01T13:09:25;10.70;99.90
52267;DHT22;38223;50.940;4.034;2023-02-01T13:11:57;10.80;99.90
52267;DHT22;38223;50.940;4.034;2023-02-01T13:14:46;10.80;99.90
52267;DHT22;38223;50.940;4.034;2023-02-01T13:17:28;11.00;99.90
52267;DHT22;38223;50.940;4.034;2023-02-01T13:20:30;11.10;99.90
52267;DHT22;38223;50.940;4.034;2023-02-01T13:23:05;11.10;99.90
52267;DHT22;38223;50.940;4.034;2023-02-01T13:25:52;11.10;99.90
52267;DHT22;38223;50.940;4.034;2023-02-01T13:28:43;11.20;99.90
52267;DHT22;38223;50.940;4.034;2023-02-01T13:31:44;11.20;99.90
52267;DHT22;38223;50.940;4.034;2023-02-01T13:42:51;10.90;99.90
52267;DHT22;38223;50.940;4.034;2023-02-01T13:45:27;10.70;99.90
52267;DHT22;38223;50.940;4.034;2023-02-01T13:47:59;10.70;99.90
52267;DHT22;38223;50.940;4.034;2023-02-01T13:50:37;10.70;99.90
52267;DHT22;38223;50.940;4.034;2023-02-01T13:53:17;10.70;99.90
52267;DHT22;38223;50.940;4.034;2023-02-01T13:55:55;10.90;99.90
52267;DHT22;38223;50.940;4.034;2023-02-01T13:58:32;10.80;99.90
52267;DHT22;38223;50.940;4.034;2023-02-01T14:03:59;10.70;99.90
52267;DHT22;38223;50.940;4.034;2023-02-01T14:06:39;10.80;99.90
52267;DHT22;38223;50.940;4.034;2023-02-01T14:09:14;10.70;99.90
52267;DHT22;38223;50.940;4.034;2023-02-01T14:11:50;10.50;99.90
52267;DHT22;38223;50.940;4.034;2023-02-01T14:19:33;10.50;99.90
52267;DHT22;38223;50.940;4.034;2023-02-01T14:22:32;10.50;99.90
52267;DHT22;38223;50.940;4.034;2023-02-01T14:25:03;10.40;99.90
52267;DHT22;38223;50.940;4.034;2023-02-01T14:27:38;10.50;99.90
52267;DHT22;38223;50.940;4.034;2023-02-01T14:30:14;10.60;99.90
52267;DHT22;38223;50.940;4.034;2023-02-01T14:32:49;10.50;99.90
52267;DHT22;38223;50.940;4.034;2023-02-01T14:35:25;10.60;99.90
52267;DHT22;38223;50.940;4.034;2023-02-01T14:38:00;10.60;99.90
52267;DHT22;38223;50.940;4.034;2023-02-01T14:40:37;10.40;99.90
52267;DHT22;38223;50.940;4.034;2023-02-01T14:43:09;10.40;99.90
52267;DHT22;38223;50.940;4.034;2023-02-01T14:51:09;10.30;99.90
52267;DHT22;38223;50.940;4.034;2023-02-01T14:53:46;10.30;99.90
52267;DHT22;38223;50.940;4.034;2023-02-01T14:59:15;10.00;99.90
52267;DHT22;38223;50.940;4.034;2023-02-01T15:01:56;9.90;99.90
52267;DHT22;38223;50.940;4.034;2023-02-01T15:04:27;9.90;99.90
52267;DHT22;38223;50.940;4.034;2023-02-01T15:09:50;9.90;99.90
52267;DHT22;38223;50.940;4.034;2023-02-01T15:15:18;10.00;99.90
52267;DHT22;38223;50.940;4.034;2023-02-01T15:17:54;10.00;99.90
52267;DHT22;38223;50.940;4.034;2023-02-01T15:20:29;10.00;99.90
52267;DHT22;38223;50.940;4.034;2023-02-01T15:23:19;10.10;99.90
52267;DHT22;38223;50.940;4.034;2023-02-01T15:25:51;10.10;99.90
52267;DHT22;38223;50.940;4.034;2023-02-01T15:28:24;10.20;99.90
52267;DHT22;38223;50.940;4.034;2023-02-01T15:31:03;10.20;99.90
52267;DHT22;38223;50.940;4.034;2023-02-01T15:33:33;10.10;99.90
52267;DHT22;38223;50.940;4.034;2023-02-01T15:36:16;10.10;99.90
52267;DHT22;38223;50.940;4.034;2023-02-01T15:38:44;10.00;99.90
52267;DHT22;38223;50.940;4.034;2023-02-01T15:41:28;10.00;99.90
52267;DHT22;38223;50.940;4.034;2023-02-01T15:44:05;10.00;99.90
52267;DHT22;38223;50.940;4.034;2023-02-01T15:46:41;9.90;99.90
52267;DHT22;38223;50.940;4.034;2023-02-01T15:49:29;9.90;99.90
52267;DHT22;38223;50.940;4.034;2023-02-01T15:52:00;9.80;99.90
52267;DHT22;38223;50.940;4.034;2023-02-01T15:54:53;9.90;99.90
52267;DHT22;38223;50.940;4.034;2023-02-01T15:57:31;9.90;99.90
52267;DHT22;38223;50.940;4.034;2023-02-01T16:00:08;9.80;99.90
52267;DHT22;38223;50.940;4.034;2023-02-01T16:02:50;9.80;99.90
52267;DHT22;38223;50.940;4.034;2023-02-01T16:05:37;9.80;99.90
52267;DHT22;38223;50.940;4.034;2023-02-01T16:08:21;9.80;99.90
52267;DHT22;38223;50.940;4.034;2023-02-01T16:11:14;9.70;99.90
52267;DHT22;38223;50.940;4.034;2023-02-01T16:13:28;9.60;99.90
52267;DHT22;38223;50.940;4.034;2023-02-01T16:15:59;9.60;99.90
52267;DHT22;38223;50.940;4.034;2023-02-01T16:18:30;9.50;99.90
52267;DHT22;38223;50.940;4.034;2023-02-01T16:21:00;9.60;99.90
52267;DHT22;38223;50.940;4.034;2023-02-01T16:23:30;9.60;99.90
52267;DHT22;38223;50.940;4.034;2023-02-01T16:25:58;9.60;99.90
52267;DHT22;38223;50.940;4.034;2023-02-01T16:28:27;9.80;99.90
52267;DHT22;38223;50.940;4.034;2023-02-01T16:31:03;9.60;99.90
52267;DHT22;38223;50.940;4.034;2023-02-01T16:33:35;9.70;99.90
52267;DHT22;38223;50.940;4.034;2023-02-01T16:36:08;9.60;99.90
52267;DHT22;38223;50.940;4.034;2023-02-01T16:38:39;9.80;99.90
52267;DHT22;38223;50.940;4.034;2023-02-01T16:41:17;9.80;99.90
52267;DHT22;38223;50.940;4.034;2023-02-01T16:43:54;9.80;99.90
52267;DHT22;38223;50.940;4.034;2023-02-01T16:46:28;9.70;99.90
52267;DHT22;38223;50.940;4.034;2023-02-01T16:51:50;9.60;99.90
52267;DHT22;38223;50.940;4.034;2023-02-01T16:54:21;9.50;99.90
52267;DHT22;38223;50.940;4.034;2023-02-01T16:56:52;9.50;99.90
52267;DHT22;38223;50.940;4.034;2023-02-01T16:59:21;9.50;99.90
52267;DHT22;38223;50.940;4.034;2023-02-01T17:01:53;9.60;99.90
52267;DHT22;38223;50.940;4.034;2023-02-01T17:04:24;9.60;99.90
52267;DHT22;38223;50.940;4.034;2023-02-01T17:06:57;9.70;99.90
52267;DHT22;38223;50.940;4.034;2023-02-01T17:09:31;9.60;99.90
52267;DHT22;38223;50.940;4.034;2023-02-01T17:12:03;9.50;99.90
52267;DHT22;38223;50.940;4.034;2023-02-01T17:14:37;9.40;99.90
52267;DHT22;38223;50.940;4.034;2023-02-01T17:17:10;9.40;99.90
52267;DHT22;38223;50.940;4.034;2023-02-01T17:19:48;9.40;99.90
52267;DHT22;38223;50.940;4.034;2023-02-01T17:22:15;9.40;99.90
52267;DHT22;38223;50.940;4.034;2023-02-01T17:24:50;9.50;99.90
52267;DHT22;38223;50.940;4.034;2023-02-01T17:27:19;9.60;99.90
52267;DHT22;38223;50.940;4.034;2023-02-01T17:29:51;9.50;99.90
52267;DHT22;38223;50.940;4.034;2023-02-01T17:32:24;9.50;99.90
52267;DHT22;38223;50.940;4.034;2023-02-01T17:34:55;9.50;99.90
52267;DHT22;38223;50.940;4.034;2023-02-01T17:37:32;9.50;99.90
52267;DHT22;38223;50.940;4.034;2023-02-01T17:40:05;9.50;99.90
52267;DHT22;38223;50.940;4.034;2023-02-01T17:42:40;9.50;99.90
52267;DHT22;38223;50.940;4.034;2023-02-01T17:45:26;9.60;99.90
52267;DHT22;38223;50.940;4.034;2023-02-01T17:47:56;9.50;99.90
52267;DHT22;38223;50.940;4.034;2023-02-01T17:50:31;9.50;99.90
52267;DHT22;38223;50.940;4.034;2023-02-01T17:53:05;9.40;99.90
52267;DHT22;38223;50.940;4.034;2023-02-01T17:55:40;9.50;99.90
52267;DHT22;38223;50.940;4.034;2023-02-01T17:58:13;9.50;99.90
52267;DHT22;38223;50.940;4.034;2023-02-01T18:00:47;9.60;99.90
52267;DHT22;38223;50.940;4.034;2023-02-01T18:03:31;9.70;99.90
52267;DHT22;38223;50.940;4.034;2023-02-01T18:06:05;9.60;99.90
52267;DHT22;38223;50.940;4.034;2023-02-01T18:08:37;9.50;99.90
52267;DHT22;38223;50.940;4.034;2023-02-01T18:11:17;9.40;99.90
52267;DHT22;38223;50.940;4.034;2023-02-01T18:13:48;9.30;99.90
52267;DHT22;38223;50.940;4.034;2023-02-01T18:16:26;9.30;99.90
52267;DHT22;38223;50.940;4.034;2023-02-01T18:18:59;9.30;99.90
52267;DHT22;38223;50.940;4.034;2023-02-01T18:21:40;9.30;99.90
52267;DHT22;38223;50.940;4.034;2023-02-01T18:24:12;9.30;99.90